sensor_id;sensor_type;location;lat;lon;timestamp;P1;durP1;ratioP1;P2;durP2;ratioP2
11691;SDS011;33659;42.672;23.354;2023-12-20T00:02:03;29.43;;;17.90;;
11691;SDS011;33659;42.672;23.354;2023-12-20T00:04:29;24.00;;;14.10;;
11691;SDS011;33659;42.672;23.354;2023-12-20T00:06:56;20.40;;;13.27;;
11691;SDS011;33659;42.672;23.354;2023-12-20T00:09:24;30.23;;;18.20;;
11691;SDS011;33659;42.672;23.354;2023-12-20T00:11:51;25.60;;;15.67;;
11691;SDS011;33659;42.672;23.354;2023-12-20T00:14:17;26.77;;;15.67;;
11691;SDS011;33659;42.672;23.354;2023-12-20T00:16:44;26.20;;;15.27;;
11691;SDS011;33659;42.672;23.354;2023-12-20T00:19:11;34.10;;;16.77;;
11691;SDS011;33659;42.672;23.354;2023-12-20T00:21:37;25.13;;;15.47;;
11691;SDS011;33659;42.672;23.354;2023-12-20T00:24:04;29.30;;;17.13;;
11691;SDS011;33659;42.672;23.354;2023-12-20T00:26:32;30.83;;;17.37;;
11691;SDS011;33659;42.672;23.354;2023-12-20T00:28:59;31.43;;;17.63;;
11691;SDS011;33659;42.672;23.354;2023-12-20T00:31:26;35.30;;;17.87;;
11691;SDS011;33659;42.672;23.354;2023-12-20T00:33:52;30.87;;;18.93;;
11691;SDS011;33659;42.672;23.354;2023-12-20T00:36:19;33.63;;;17.77;;
11691;SDS011;33659;42.672;23.354;2023-12-20T00:38:46;32.53;;;18.20;;
11691;SDS011;33659;42.672;23.354;2023-12-20T00:41:13;31.60;;;17.33;;
11691;SDS011;33659;42.672;23.354;2023-12-20T00:43:42;29.90;;;16.90;;
11691;SDS011;33659;42.672;23.354;2023-12-20T00:46:09;30.20;;;17.33;;
11691;SDS011;33659;42.672;23.354;2023-12-20T00:48:36;35.73;;;18.43;;
11691;SDS011;33659;42.672;23.354;2023-12-20T00:51:03;27.87;;;17.33;;
11691;SDS011;33659;42.672;23.354;2023-12-20T00:53:30;33.00;;;18.07;;
11691;SDS011;33659;42.672;23.354;2023-12-20T00:55:56;36.80;;;20.90;;
11691;SDS011;33659;42.672;23.354;2023-12-20T00:58:24;35.63;;;18.90;;
11691;SDS011;33659;42.672;23.354;2023-12-20T01:00:53;32.37;;;18.07;;
11691;SDS011;33659;42.672;23.354;2023-12-20T01:03:19;30.67;;;18.57;;
11691;SDS011;33659;42.672;23.354;2023-12-20T01:05:46;31.97;;;15.27;;
11691;SDS011;33659;42.672;23.354;2023-12-20T01:08:13;28.50;;;15.37;;
11691;SDS011;33659;42.672;23.354;2023-12-20T01:10:39;27.23;;;15.60;;
11691;SDS011;33659;42.672;23.354;2023-12-20T01:13:06;31.17;;;16.33;;
11691;SDS011;33659;42.672;23.354;2023-12-20T01:15:34;25.83;;;16.23;;
11691;SDS011;33659;42.672;23.354;2023-12-20T01:18:02;26.00;;;17.03;;
11691;SDS011;33659;42.672;23.354;2023-12-20T01:20:29;30.43;;;17.30;;
11691;SDS011;33659;42.672;23.354;2023-12-20T01:22:55;28.17;;;16.10;;
11691;SDS011;33659;42.672;23.354;2023-12-20T01:25:22;27.37;;;16.10;;
11691;SDS011;33659;42.672;23.354;2023-12-20T01:27:49;29.73;;;17.23;;
11691;SDS011;33659;42.672;23.354;2023-12-20T01:30:16;30.23;;;17.17;;
11691;SDS011;33659;42.672;23.354;2023-12-20T01:32:43;31.30;;;17.00;;
11691;SDS011;33659;42.672;23.354;2023-12-20T01:35:11;29.77;;;17.70;;
11691;SDS011;33659;42.672;23.354;2023-12-20T01:37:38;27.73;;;17.27;;
11691;SDS011;33659;42.672;23.354;2023-12-20T01:40:05;29.57;;;16.93;;
11691;SDS011;33659;42.672;23.354;2023-12-20T01:42:33;28.20;;;16.50;;
11691;SDS011;33659;42.672;23.354;2023-12-20T01:45:00;26.07;;;14.97;;
11691;SDS011;33659;42.672;23.354;2023-12-20T01:47:27;24.57;;;14.07;;
11691;SDS011;33659;42.672;23.354;2023-12-20T01:49:54;21.77;;;12.80;;
11691;SDS011;33659;42.672;23.354;2023-12-20T01:52:23;23.47;;;14.77;;
11691;SDS011;33659;42.672;23.354;2023-12-20T01:54:51;21.93;;;13.33;;
11691;SDS011;33659;42.672;23.354;2023-12-20T01:57:19;21.37;;;12.60;;
11691;SDS011;33659;42.672;23.354;2023-12-20T01:59:46;24.57;;;16.00;;
11691;SDS011;33659;42.672;23.354;2023-12-20T02:02:13;24.93;;;12.87;;
11691;SDS011;33659;42.672;23.354;2023-12-20T02:04:40;16.10;;;9.90;;
11691;SDS011;33659;42.672;23.354;2023-12-20T02:07:07;11.33;;;6.87;;
11691;SDS011;33659;42.672;23.354;2023-12-20T02:09:36;24.13;;;12.47;;
11691;SDS011;33659;42.672;23.354;2023-12-20T02:12:03;16.47;;;9.47;;
11691;SDS011;33659;42.672;23.354;2023-12-20T02:14:30;25.07;;;13.30;;
11691;SDS011;33659;42.672;23.354;2023-12-20T02:16:56;29.40;;;15.87;;
11691;SDS011;33659;42.672;23.354;2023-12-20T02:19:23;28.47;;;16.97;;
11691;SDS011;33659;42.672;23.354;2023-12-20T02:21:51;31.73;;;18.07;;
11691;SDS011;33659;42.672;23.354;2023-12-20T02:24:31;31.40;;;18.50;;
11691;SDS011;33659;42.672;23.354;2023-12-20T02:26:57;28.63;;;16.93;;
11691;SDS011;33659;42.672;23.354;2023-12-20T02:29:24;39.83;;;20.50;;
11691;SDS011;33659;42.672;23.354;2023-12-20T02:31:52;44.70;;;26.83;;
11691;SDS011;33659;42.672;23.354;2023-12-20T02:34:18;49.57;;;28.30;;
11691;SDS011;33659;42.672;23.354;2023-12-20T02:36:45;46.97;;;26.40;;
11691;SDS011;33659;42.672;23.354;2023-12-20T02:39:13;48.00;;;29.43;;
11691;SDS011;33659;42.672;23.354;2023-12-20T02:41:40;57.23;;;32.97;;
11691;SDS011;33659;42.672;23.354;2023-12-20T02:44:07;60.73;;;37.40;;
11691;SDS011;33659;42.672;23.354;2023-12-20T02:46:33;71.27;;;40.47;;
11691;SDS011;33659;42.672;23.354;2023-12-20T02:49:00;72.77;;;39.50;;
11691;SDS011;33659;42.672;23.354;2023-12-20T02:51:27;78.87;;;43.27;;
11691;SDS011;33659;42.672;23.354;2023-12-20T02:53:54;86.50;;;49.30;;
11691;SDS011;33659;42.672;23.354;2023-12-20T02:56:22;82.67;;;47.33;;
11691;SDS011;33659;42.672;23.354;2023-12-20T02:58:48;75.27;;;47.13;;
11691;SDS011;33659;42.672;23.354;2023-12-20T03:01:15;75.73;;;46.00;;
11691;SDS011;33659;42.672;23.354;2023-12-20T03:03:41;75.67;;;47.47;;
11691;SDS011;33659;42.672;23.354;2023-12-20T03:06:08;87.13;;;48.33;;
11691;SDS011;33659;42.672;23.354;2023-12-20T03:08:35;87.60;;;48.07;;
11691;SDS011;33659;42.672;23.354;2023-12-20T03:11:02;87.37;;;49.03;;
11691;SDS011;33659;42.672;23.354;2023-12-20T03:13:30;86.63;;;48.37;;
11691;SDS011;33659;42.672;23.354;2023-12-20T03:15:57;74.17;;;43.93;;
11691;SDS011;33659;42.672;23.354;2023-12-20T03:18:23;74.37;;;42.80;;
11691;SDS011;33659;42.672;23.354;2023-12-20T03:20:50;69.27;;;40.10;;
11691;SDS011;33659;42.672;23.354;2023-12-20T03:23:16;64.87;;;38.30;;
11691;SDS011;33659;42.672;23.354;2023-12-20T03:25:43;60.27;;;37.40;;
11691;SDS011;33659;42.672;23.354;2023-12-20T03:28:10;64.13;;;38.13;;
11691;SDS011;33659;42.672;23.354;2023-12-20T03:30:38;53.93;;;30.93;;
11691;SDS011;33659;42.672;23.354;2023-12-20T03:33:04;44.97;;;29.73;;
11691;SDS011;33659;42.672;23.354;2023-12-20T03:35:32;41.47;;;25.10;;
11691;SDS011;33659;42.672;23.354;2023-12-20T03:37:59;43.43;;;24.20;;
11691;SDS011;33659;42.672;23.354;2023-12-20T03:40:26;25.40;;;16.63;;
11691;SDS011;33659;42.672;23.354;2023-12-20T03:42:53;19.80;;;15.40;;
11691;SDS011;33659;42.672;23.354;2023-12-20T03:45:19;26.47;;;16.40;;
11691;SDS011;33659;42.672;23.354;2023-12-20T03:47:48;24.07;;;15.60;;
11691;SDS011;33659;42.672;23.354;2023-12-20T03:50:14;28.47;;;16.57;;
11691;SDS011;33659;42.672;23.354;2023-12-20T03:52:41;24.37;;;13.97;;
11691;SDS011;33659;42.672;23.354;2023-12-20T03:55:08;26.33;;;15.87;;
11691;SDS011;33659;42.672;23.354;2023-12-20T03:57:35;27.97;;;17.57;;
11691;SDS011;33659;42.672;23.354;2023-12-20T04:00:01;33.67;;;18.63;;
11691;SDS011;33659;42.672;23.354;2023-12-20T04:02:29;31.73;;;19.03;;
11691;SDS011;33659;42.672;23.354;2023-12-20T04:04:57;32.23;;;18.70;;
11691;SDS011;33659;42.672;23.354;2023-12-20T04:07:23;32.77;;;21.63;;
11691;SDS011;33659;42.672;23.354;2023-12-20T04:09:50;39.43;;;22.70;;
11691;SDS011;33659;42.672;23.354;2023-12-20T04:12:17;37.80;;;22.73;;
11691;SDS011;33659;42.672;23.354;2023-12-20T04:14:43;32.27;;;20.80;;
11691;SDS011;33659;42.672;23.354;2023-12-20T04:17:10;37.23;;;20.27;;
11691;SDS011;33659;42.672;23.354;2023-12-20T04:19:36;35.10;;;22.07;;
11691;SDS011;33659;42.672;23.354;2023-12-20T04:22:04;40.70;;;24.00;;
11691;SDS011;33659;42.672;23.354;2023-12-20T04:24:31;34.57;;;20.33;;
11691;SDS011;33659;42.672;23.354;2023-12-20T04:26:58;42.60;;;22.93;;
11691;SDS011;33659;42.672;23.354;2023-12-20T04:29:24;44.47;;;24.70;;
11691;SDS011;33659;42.672;23.354;2023-12-20T04:31:51;39.37;;;24.40;;
11691;SDS011;33659;42.672;23.354;2023-12-20T04:34:18;46.60;;;26.20;;
11691;SDS011;33659;42.672;23.354;2023-12-20T04:36:44;41.53;;;24.80;;
11691;SDS011;33659;42.672;23.354;2023-12-20T04:39:13;46.67;;;25.90;;
11691;SDS011;33659;42.672;23.354;2023-12-20T04:41:40;40.27;;;25.13;;
11691;SDS011;33659;42.672;23.354;2023-12-20T04:44:06;42.07;;;25.97;;
11691;SDS011;33659;42.672;23.354;2023-12-20T04:46:33;42.70;;;26.43;;
11691;SDS011;33659;42.672;23.354;2023-12-20T04:49:00;43.27;;;26.53;;
11691;SDS011;33659;42.672;23.354;2023-12-20T04:51:27;46.13;;;27.20;;
11691;SDS011;33659;42.672;23.354;2023-12-20T04:53:54;45.90;;;26.87;;
11691;SDS011;33659;42.672;23.354;2023-12-20T04:56:22;41.57;;;26.47;;
11691;SDS011;33659;42.672;23.354;2023-12-20T04:58:49;45.70;;;27.90;;
11691;SDS011;33659;42.672;23.354;2023-12-20T05:01:15;43.87;;;27.97;;
11691;SDS011;33659;42.672;23.354;2023-12-20T05:03:43;47.33;;;28.10;;
11691;SDS011;33659;42.672;23.354;2023-12-20T05:06:09;49.67;;;27.73;;
11691;SDS011;33659;42.672;23.354;2023-12-20T05:08:36;44.07;;;27.50;;
11691;SDS011;33659;42.672;23.354;2023-12-20T05:11:03;49.43;;;27.63;;
11691;SDS011;33659;42.672;23.354;2023-12-20T05:13:31;47.50;;;27.67;;
11691;SDS011;33659;42.672;23.354;2023-12-20T05:15:58;46.73;;;27.40;;
11691;SDS011;33659;42.672;23.354;2023-12-20T05:18:25;53.10;;;27.77;;
11691;SDS011;33659;42.672;23.354;2023-12-20T05:20:51;58.83;;;27.70;;
11691;SDS011;33659;42.672;23.354;2023-12-20T05:23:18;46.87;;;25.43;;
11691;SDS011;33659;42.672;23.354;2023-12-20T05:25:45;47.47;;;27.53;;
11691;SDS011;33659;42.672;23.354;2023-12-20T05:28:12;48.33;;;27.00;;
11691;SDS011;33659;42.672;23.354;2023-12-20T05:30:40;43.43;;;25.13;;
11691;SDS011;33659;42.672;23.354;2023-12-20T05:33:06;49.63;;;25.57;;
11691;SDS011;33659;42.672;23.354;2023-12-20T05:35:34;47.43;;;27.53;;
11691;SDS011;33659;42.672;23.354;2023-12-20T05:38:00;47.40;;;27.67;;
11691;SDS011;33659;42.672;23.354;2023-12-20T05:40:27;43.53;;;25.03;;
11691;SDS011;33659;42.672;23.354;2023-12-20T05:42:53;48.77;;;24.73;;
11691;SDS011;33659;42.672;23.354;2023-12-20T05:45:20;45.63;;;24.47;;
11691;SDS011;33659;42.672;23.354;2023-12-20T05:47:47;50.07;;;27.13;;
11691;SDS011;33659;42.672;23.354;2023-12-20T05:50:14;46.40;;;24.47;;
11691;SDS011;33659;42.672;23.354;2023-12-20T05:52:41;40.37;;;24.87;;
11691;SDS011;33659;42.672;23.354;2023-12-20T05:55:07;37.67;;;24.40;;
11691;SDS011;33659;42.672;23.354;2023-12-20T05:57:34;35.90;;;22.93;;
11691;SDS011;33659;42.672;23.354;2023-12-20T06:00:01;34.70;;;20.77;;
11691;SDS011;33659;42.672;23.354;2023-12-20T06:02:28;41.17;;;22.30;;
11691;SDS011;33659;42.672;23.354;2023-12-20T06:04:56;36.27;;;20.90;;
11691;SDS011;33659;42.672;23.354;2023-12-20T06:07:23;39.83;;;22.23;;
11691;SDS011;33659;42.672;23.354;2023-12-20T06:09:49;39.57;;;22.40;;
11691;SDS011;33659;42.672;23.354;2023-12-20T06:12:16;38.63;;;20.13;;
11691;SDS011;33659;42.672;23.354;2023-12-20T06:14:43;31.70;;;19.27;;
11691;SDS011;33659;42.672;23.354;2023-12-20T06:17:09;34.03;;;18.97;;
11691;SDS011;33659;42.672;23.354;2023-12-20T06:19:36;32.43;;;19.33;;
11691;SDS011;33659;42.672;23.354;2023-12-20T06:22:04;30.40;;;18.60;;
11691;SDS011;33659;42.672;23.354;2023-12-20T06:24:31;32.20;;;21.10;;
11691;SDS011;33659;42.672;23.354;2023-12-20T06:26:59;33.97;;;19.97;;
11691;SDS011;33659;42.672;23.354;2023-12-20T06:29:26;34.03;;;19.57;;
11691;SDS011;33659;42.672;23.354;2023-12-20T06:31:52;37.63;;;19.50;;
11691;SDS011;33659;42.672;23.354;2023-12-20T06:34:19;32.10;;;18.10;;
11691;SDS011;33659;42.672;23.354;2023-12-20T06:36:45;30.37;;;18.53;;
11691;SDS011;33659;42.672;23.354;2023-12-20T06:39:13;31.47;;;18.57;;
11691;SDS011;33659;42.672;23.354;2023-12-20T06:41:40;35.60;;;20.57;;
11691;SDS011;33659;42.672;23.354;2023-12-20T06:44:08;32.60;;;19.70;;
11691;SDS011;33659;42.672;23.354;2023-12-20T06:46:34;37.40;;;22.67;;
11691;SDS011;33659;42.672;23.354;2023-12-20T06:49:01;38.60;;;22.30;;
11691;SDS011;33659;42.672;23.354;2023-12-20T06:51:28;33.43;;;20.50;;
11691;SDS011;33659;42.672;23.354;2023-12-20T06:53:55;35.03;;;20.13;;
11691;SDS011;33659;42.672;23.354;2023-12-20T06:56:23;33.83;;;18.60;;
11691;SDS011;33659;42.672;23.354;2023-12-20T06:58:50;37.03;;;19.70;;
11691;SDS011;33659;42.672;23.354;2023-12-20T07:01:17;32.93;;;20.30;;
11691;SDS011;33659;42.672;23.354;2023-12-20T07:03:43;39.13;;;20.97;;
11691;SDS011;33659;42.672;23.354;2023-12-20T07:06:10;32.20;;;19.93;;
11691;SDS011;33659;42.672;23.354;2023-12-20T07:08:37;35.53;;;20.50;;
11691;SDS011;33659;42.672;23.354;2023-12-20T07:11:05;29.93;;;18.60;;
11691;SDS011;33659;42.672;23.354;2023-12-20T07:13:33;37.40;;;19.00;;
11691;SDS011;33659;42.672;23.354;2023-12-20T07:16:00;36.50;;;20.43;;
11691;SDS011;33659;42.672;23.354;2023-12-20T07:18:26;38.47;;;20.67;;
11691;SDS011;33659;42.672;23.354;2023-12-20T07:20:53;34.80;;;19.70;;
11691;SDS011;33659;42.672;23.354;2023-12-20T07:23:20;31.20;;;20.67;;
11691;SDS011;33659;42.672;23.354;2023-12-20T07:25:47;41.97;;;21.40;;
11691;SDS011;33659;42.672;23.354;2023-12-20T07:28:13;38.43;;;23.70;;
11691;SDS011;33659;42.672;23.354;2023-12-20T07:30:41;39.03;;;22.30;;
11691;SDS011;33659;42.672;23.354;2023-12-20T07:33:08;45.33;;;24.80;;
11691;SDS011;33659;42.672;23.354;2023-12-20T07:35:35;39.20;;;23.00;;
11691;SDS011;33659;42.672;23.354;2023-12-20T07:38:02;42.83;;;23.03;;
11691;SDS011;33659;42.672;23.354;2023-12-20T07:40:28;40.27;;;23.30;;
11691;SDS011;33659;42.672;23.354;2023-12-20T07:42:55;34.13;;;20.27;;
11691;SDS011;33659;42.672;23.354;2023-12-20T07:45:23;35.03;;;22.00;;
11691;SDS011;33659;42.672;23.354;2023-12-20T07:47:52;41.77;;;24.33;;
11691;SDS011;33659;42.672;23.354;2023-12-20T07:50:19;33.97;;;21.33;;
11691;SDS011;33659;42.672;23.354;2023-12-20T07:52:46;41.27;;;20.97;;
11691;SDS011;33659;42.672;23.354;2023-12-20T07:55:12;32.93;;;19.27;;
11691;SDS011;33659;42.672;23.354;2023-12-20T07:57:40;37.50;;;20.47;;
11691;SDS011;33659;42.672;23.354;2023-12-20T08:00:07;37.83;;;20.70;;
11691;SDS011;33659;42.672;23.354;2023-12-20T08:02:34;34.23;;;20.70;;
11691;SDS011;33659;42.672;23.354;2023-12-20T08:05:02;35.83;;;20.47;;
11691;SDS011;33659;42.672;23.354;2023-12-20T08:07:29;32.43;;;19.73;;
11691;SDS011;33659;42.672;23.354;2023-12-20T08:09:56;32.27;;;18.87;;
11691;SDS011;33659;42.672;23.354;2023-12-20T08:12:22;33.63;;;19.70;;
11691;SDS011;33659;42.672;23.354;2023-12-20T08:14:52;39.77;;;20.20;;
11691;SDS011;33659;42.672;23.354;2023-12-20T08:17:19;33.43;;;20.33;;
11691;SDS011;33659;42.672;23.354;2023-12-20T08:19:45;36.67;;;20.67;;
11691;SDS011;33659;42.672;23.354;2023-12-20T08:22:13;39.63;;;20.17;;
11691;SDS011;33659;42.672;23.354;2023-12-20T08:24:40;32.57;;;19.57;;
11691;SDS011;33659;42.672;23.354;2023-12-20T08:27:07;32.40;;;20.13;;
11691;SDS011;33659;42.672;23.354;2023-12-20T08:29:34;39.03;;;20.07;;
11691;SDS011;33659;42.672;23.354;2023-12-20T08:32:01;37.33;;;19.10;;
11691;SDS011;33659;42.672;23.354;2023-12-20T08:34:28;38.07;;;20.07;;
11691;SDS011;33659;42.672;23.354;2023-12-20T08:36:54;39.47;;;20.47;;
11691;SDS011;33659;42.672;23.354;2023-12-20T08:39:22;34.73;;;19.77;;
11691;SDS011;33659;42.672;23.354;2023-12-20T08:41:49;41.23;;;21.73;;
11691;SDS011;33659;42.672;23.354;2023-12-20T08:44:16;37.00;;;21.07;;
11691;SDS011;33659;42.672;23.354;2023-12-20T08:46:43;36.67;;;21.33;;
11691;SDS011;33659;42.672;23.354;2023-12-20T08:49:09;38.10;;;21.83;;
11691;SDS011;33659;42.672;23.354;2023-12-20T08:51:36;41.37;;;20.70;;
11691;SDS011;33659;42.672;23.354;2023-12-20T08:54:05;42.20;;;19.83;;
11691;SDS011;33659;42.672;23.354;2023-12-20T08:56:34;41.67;;;21.17;;
11691;SDS011;33659;42.672;23.354;2023-12-20T08:59:01;42.20;;;21.87;;
11691;SDS011;33659;42.672;23.354;2023-12-20T09:01:27;47.73;;;22.03;;
11691;SDS011;33659;42.672;23.354;2023-12-20T09:03:54;45.97;;;22.90;;
11691;SDS011;33659;42.672;23.354;2023-12-20T09:06:21;48.30;;;23.30;;
11691;SDS011;33659;42.672;23.354;2023-12-20T09:08:47;50.73;;;22.90;;
11691;SDS011;33659;42.672;23.354;2023-12-20T09:11:14;47.67;;;22.43;;
11691;SDS011;33659;42.672;23.354;2023-12-20T09:13:44;42.90;;;22.77;;
11691;SDS011;33659;42.672;23.354;2023-12-20T09:16:10;48.10;;;22.23;;
11691;SDS011;33659;42.672;23.354;2023-12-20T09:18:38;44.27;;;22.90;;
11691;SDS011;33659;42.672;23.354;2023-12-20T09:21:04;43.03;;;21.37;;
11691;SDS011;33659;42.672;23.354;2023-12-20T09:23:31;44.60;;;22.80;;
11691;SDS011;33659;42.672;23.354;2023-12-20T09:25:58;40.30;;;21.87;;
11691;SDS011;33659;42.672;23.354;2023-12-20T09:28:24;44.63;;;20.73;;
11691;SDS011;33659;42.672;23.354;2023-12-20T09:30:52;50.93;;;24.00;;
11691;SDS011;33659;42.672;23.354;2023-12-20T09:33:19;51.47;;;23.77;;
11691;SDS011;33659;42.672;23.354;2023-12-20T09:35:46;47.47;;;23.73;;
11691;SDS011;33659;42.672;23.354;2023-12-20T09:38:13;48.97;;;24.70;;
11691;SDS011;33659;42.672;23.354;2023-12-20T09:40:41;49.60;;;23.23;;
11691;SDS011;33659;42.672;23.354;2023-12-20T09:43:08;50.07;;;24.47;;
11691;SDS011;33659;42.672;23.354;2023-12-20T09:45:37;50.23;;;23.87;;
11691;SDS011;33659;42.672;23.354;2023-12-20T09:48:08;53.00;;;24.57;;
11691;SDS011;33659;42.672;23.354;2023-12-20T09:50:37;54.93;;;25.50;;
11691;SDS011;33659;42.672;23.354;2023-12-20T09:53:03;59.93;;;24.50;;
11691;SDS011;33659;42.672;23.354;2023-12-20T09:55:31;58.23;;;26.20;;
11691;SDS011;33659;42.672;23.354;2023-12-20T09:57:59;59.20;;;25.23;;
11691;SDS011;33659;42.672;23.354;2023-12-20T10:00:26;52.50;;;25.30;;
11691;SDS011;33659;42.672;23.354;2023-12-20T10:02:56;52.70;;;26.10;;
11691;SDS011;33659;42.672;23.354;2023-12-20T10:05:26;57.57;;;26.13;;
11691;SDS011;33659;42.672;23.354;2023-12-20T10:07:54;56.23;;;25.07;;
11691;SDS011;33659;42.672;23.354;2023-12-20T10:10:20;49.80;;;24.47;;
11691;SDS011;33659;42.672;23.354;2023-12-20T10:13:00;52.93;;;25.20;;
11691;SDS011;33659;42.672;23.354;2023-12-20T10:15:28;51.33;;;25.73;;
11691;SDS011;33659;42.672;23.354;2023-12-20T10:17:54;55.37;;;25.47;;
11691;SDS011;33659;42.672;23.354;2023-12-20T10:20:21;48.10;;;25.37;;
11691;SDS011;33659;42.672;23.354;2023-12-20T10:22:49;52.87;;;24.77;;
11691;SDS011;33659;42.672;23.354;2023-12-20T10:25:18;47.73;;;25.57;;
11691;SDS011;33659;42.672;23.354;2023-12-20T10:27:45;52.00;;;26.73;;
11691;SDS011;33659;42.672;23.354;2023-12-20T10:30:12;51.77;;;25.83;;
11691;SDS011;33659;42.672;23.354;2023-12-20T10:32:39;48.20;;;25.17;;
11691;SDS011;33659;42.672;23.354;2023-12-20T10:35:06;56.53;;;27.87;;
11691;SDS011;33659;42.672;23.354;2023-12-20T10:37:35;50.00;;;27.90;;
11691;SDS011;33659;42.672;23.354;2023-12-20T10:40:03;53.47;;;26.43;;
11691;SDS011;33659;42.672;23.354;2023-12-20T10:42:32;48.23;;;27.40;;
11691;SDS011;33659;42.672;23.354;2023-12-20T10:44:59;51.30;;;26.97;;
11691;SDS011;33659;42.672;23.354;2023-12-20T10:47:26;59.20;;;28.20;;
11691;SDS011;33659;42.672;23.354;2023-12-20T10:49:54;54.73;;;27.80;;
11691;SDS011;33659;42.672;23.354;2023-12-20T10:52:21;51.33;;;28.23;;
11691;SDS011;33659;42.672;23.354;2023-12-20T10:54:49;54.77;;;27.97;;
11691;SDS011;33659;42.672;23.354;2023-12-20T10:57:18;53.50;;;28.80;;
11691;SDS011;33659;42.672;23.354;2023-12-20T10:59:44;54.30;;;27.70;;
11691;SDS011;33659;42.672;23.354;2023-12-20T11:02:12;55.13;;;29.73;;
11691;SDS011;33659;42.672;23.354;2023-12-20T11:04:55;53.70;;;28.50;;
11691;SDS011;33659;42.672;23.354;2023-12-20T11:07:29;53.33;;;27.73;;
11691;SDS011;33659;42.672;23.354;2023-12-20T11:10:00;54.37;;;30.20;;
11691;SDS011;33659;42.672;23.354;2023-12-20T11:12:34;56.63;;;29.13;;
11691;SDS011;33659;42.672;23.354;2023-12-20T11:15:07;55.67;;;29.33;;
11691;SDS011;33659;42.672;23.354;2023-12-20T11:17:34;56.23;;;29.87;;
11691;SDS011;33659;42.672;23.354;2023-12-20T11:20:06;53.70;;;29.73;;
11691;SDS011;33659;42.672;23.354;2023-12-20T11:22:35;54.17;;;29.63;;
11691;SDS011;33659;42.672;23.354;2023-12-20T11:25:04;52.33;;;29.20;;
11691;SDS011;33659;42.672;23.354;2023-12-20T11:27:36;52.30;;;28.53;;
11691;SDS011;33659;42.672;23.354;2023-12-20T11:30:06;50.13;;;27.93;;
11691;SDS011;33659;42.672;23.354;2023-12-20T11:32:35;54.23;;;29.43;;
11691;SDS011;33659;42.672;23.354;2023-12-20T11:35:16;61.80;;;29.63;;
11691;SDS011;33659;42.672;23.354;2023-12-20T11:37:44;51.60;;;27.03;;
11691;SDS011;33659;42.672;23.354;2023-12-20T11:40:13;53.77;;;27.60;;
11691;SDS011;33659;42.672;23.354;2023-12-20T11:42:43;52.53;;;26.90;;
11691;SDS011;33659;42.672;23.354;2023-12-20T11:45:11;50.20;;;28.47;;
11691;SDS011;33659;42.672;23.354;2023-12-20T11:47:40;52.50;;;28.87;;
11691;SDS011;33659;42.672;23.354;2023-12-20T11:50:09;57.30;;;29.03;;
11691;SDS011;33659;42.672;23.354;2023-12-20T11:52:35;56.07;;;29.00;;
11691;SDS011;33659;42.672;23.354;2023-12-20T11:55:02;51.93;;;28.80;;
11691;SDS011;33659;42.672;23.354;2023-12-20T11:57:29;56.53;;;28.70;;
11691;SDS011;33659;42.672;23.354;2023-12-20T11:59:57;62.73;;;29.27;;
11691;SDS011;33659;42.672;23.354;2023-12-20T12:02:24;55.00;;;28.30;;
11691;SDS011;33659;42.672;23.354;2023-12-20T12:04:51;54.27;;;28.10;;
11691;SDS011;33659;42.672;23.354;2023-12-20T12:07:18;55.03;;;28.83;;
11691;SDS011;33659;42.672;23.354;2023-12-20T12:09:45;56.92;;;28.73;;
11691;SDS011;33659;42.672;23.354;2023-12-20T12:12:12;58.75;;;29.88;;
11691;SDS011;33659;42.672;23.354;2023-12-20T12:14:41;62.42;;;30.17;;
11691;SDS011;33659;42.672;23.354;2023-12-20T12:17:12;55.08;;;29.73;;
11691;SDS011;33659;42.672;23.354;2023-12-20T12:19:40;53.65;;;29.63;;
11691;SDS011;33659;42.672;23.354;2023-12-20T12:22:07;61.65;;;32.05;;
11691;SDS011;33659;42.672;23.354;2023-12-20T12:24:38;56.05;;;29.52;;
11691;SDS011;33659;42.672;23.354;2023-12-20T12:27:05;56.80;;;31.90;;
11691;SDS011;33659;42.672;23.354;2023-12-20T12:29:32;55.25;;;30.73;;
11691;SDS011;33659;42.672;23.354;2023-12-20T12:31:59;54.05;;;29.48;;
11691;SDS011;33659;42.672;23.354;2023-12-20T12:34:28;52.28;;;29.67;;
11691;SDS011;33659;42.672;23.354;2023-12-20T12:36:55;56.92;;;30.55;;
11691;SDS011;33659;42.672;23.354;2023-12-20T12:39:22;55.83;;;30.15;;
11691;SDS011;33659;42.672;23.354;2023-12-20T12:41:50;54.10;;;29.52;;
11691;SDS011;33659;42.672;23.354;2023-12-20T12:44:16;47.53;;;29.13;;
11691;SDS011;33659;42.672;23.354;2023-12-20T12:46:44;57.58;;;32.00;;
11691;SDS011;33659;42.672;23.354;2023-12-20T12:49:11;56.47;;;32.63;;
11691;SDS011;33659;42.672;23.354;2023-12-20T12:51:39;55.65;;;31.50;;
11691;SDS011;33659;42.672;23.354;2023-12-20T12:54:05;55.65;;;32.28;;
11691;SDS011;33659;42.672;23.354;2023-12-20T12:56:32;56.08;;;31.55;;
11691;SDS011;33659;42.672;23.354;2023-12-20T12:58:59;59.67;;;34.03;;
11691;SDS011;33659;42.672;23.354;2023-12-20T13:01:26;62.30;;;33.42;;
11691;SDS011;33659;42.672;23.354;2023-12-20T13:03:52;60.75;;;32.55;;
11691;SDS011;33659;42.672;23.354;2023-12-20T13:06:19;62.80;;;30.60;;
11691;SDS011;33659;42.672;23.354;2023-12-20T13:08:47;65.00;;;30.92;;
11691;SDS011;33659;42.672;23.354;2023-12-20T13:11:14;66.17;;;33.53;;
11691;SDS011;33659;42.672;23.354;2023-12-20T13:13:41;62.97;;;32.70;;
11691;SDS011;33659;42.672;23.354;2023-12-20T13:16:08;66.13;;;33.83;;
11691;SDS011;33659;42.672;23.354;2023-12-20T13:18:34;65.73;;;33.00;;
11691;SDS011;33659;42.672;23.354;2023-12-20T13:21:01;63.67;;;32.37;;
11691;SDS011;33659;42.672;23.354;2023-12-20T13:23:28;72.73;;;34.20;;
11691;SDS011;33659;42.672;23.354;2023-12-20T13:25:56;66.20;;;31.80;;
11691;SDS011;33659;42.672;23.354;2023-12-20T13:28:24;72.73;;;33.47;;
11691;SDS011;33659;42.672;23.354;2023-12-20T13:30:50;60.37;;;32.00;;
11691;SDS011;33659;42.672;23.354;2023-12-20T13:33:17;66.30;;;30.93;;
11691;SDS011;33659;42.672;23.354;2023-12-20T13:35:44;59.17;;;28.90;;
11691;SDS011;33659;42.672;23.354;2023-12-20T13:38:12;61.57;;;29.30;;
11691;SDS011;33659;42.672;23.354;2023-12-20T13:40:39;53.40;;;27.17;;
11691;SDS011;33659;42.672;23.354;2023-12-20T13:43:07;60.47;;;29.83;;
11691;SDS011;33659;42.672;23.354;2023-12-20T13:45:35;62.33;;;28.63;;
11691;SDS011;33659;42.672;23.354;2023-12-20T13:48:02;63.73;;;27.50;;
11691;SDS011;33659;42.672;23.354;2023-12-20T13:50:29;68.17;;;28.53;;
11691;SDS011;33659;42.672;23.354;2023-12-20T13:52:56;61.70;;;28.87;;
11691;SDS011;33659;42.672;23.354;2023-12-20T13:55:22;60.53;;;29.70;;
11691;SDS011;33659;42.672;23.354;2023-12-20T13:57:50;61.67;;;28.73;;
11691;SDS011;33659;42.672;23.354;2023-12-20T14:00:18;56.87;;;26.83;;
11691;SDS011;33659;42.672;23.354;2023-12-20T14:02:45;62.60;;;27.43;;
11691;SDS011;33659;42.672;23.354;2023-12-20T14:05:13;64.13;;;27.10;;
11691;SDS011;33659;42.672;23.354;2023-12-20T14:07:42;60.40;;;29.20;;
11691;SDS011;33659;42.672;23.354;2023-12-20T14:10:10;53.83;;;27.53;;